createdAt,value
2023-03-27T00:04:59.576Z,8.15
2023-03-27T00:10:04.732Z,7.65
2023-03-27T00:15:17.472Z,7.92
2023-03-27T00:20:25.247Z,7.88
2023-03-27T00:25:32.291Z,7.69
2023-03-27T00:30:43.442Z,7.61
2023-03-27T00:35:50.050Z,7.85
2023-03-27T00:40:56.332Z,7.49
2023-03-27T00:46:08.236Z,6.66
2023-03-27T00:51:13.830Z,6.32
2023-03-27T00:56:20.220Z,6.03
2023-03-27T01:01:31.004Z,5.74
2023-03-27T01:06:36.404Z,5.39
2023-03-27T01:11:53.886Z,5.38
2023-03-27T01:17:17.587Z,5.29
2023-03-27T01:22:44.863Z,5.25
2023-03-27T01:28:24.918Z,4.63
2023-03-27T01:33:58.980Z,4.67
2023-03-27T01:39:24.531Z,4.42
2023-03-27T01:44:45.168Z,4.80
2023-03-27T01:49:55.108Z,4.85
2023-03-27T01:55:09.976Z,4.52
2023-03-27T02:00:22.200Z,4.61
2023-03-27T02:05:33.365Z,4.41
2023-03-27T02:10:48.271Z,3.89
2023-03-27T02:15:55.058Z,3.74
2023-03-27T02:21:02.705Z,3.78
2023-03-27T02:26:14.941Z,3.78
2023-03-27T02:31:36.624Z,3.89
2023-03-27T02:36:53.580Z,3.92
2023-03-27T02:42:06.945Z,4.12
2023-03-27T02:47:20.887Z,4.32
2023-03-27T02:52:33.925Z,4.12
2023-03-27T02:57:52.299Z,3.83
2023-03-27T03:03:21.924Z,3.67
2023-03-27T03:08:39.012Z,4.07
2023-03-27T03:13:51.222Z,4.05
2023-03-27T03:18:56.779Z,3.86
2023-03-27T03:24:02.132Z,3.76
2023-03-27T03:29:12.832Z,4.20
2023-03-27T03:34:22.757Z,3.82
2023-03-27T03:39:28.400Z,4.06
2023-03-27T03:44:37.458Z,4.20
2023-03-27T03:49:56.458Z,3.78
2023-03-27T03:55:06.431Z,3.97
2023-03-27T04:00:18.287Z,3.69
2023-03-27T04:05:32.568Z,3.85
2023-03-27T04:10:44.463Z,4.19
2023-03-27T04:16:14.926Z,4.30
2023-03-27T04:21:26.997Z,4.15
2023-03-27T04:26:33.441Z,4.34
2023-03-27T04:31:53.795Z,4.20
2023-03-27T04:37:23.246Z,4.23
2023-03-27T04:42:44.222Z,4.30
2023-03-27T04:47:53.173Z,4.19
2023-03-27T04:53:02.222Z,4.25
2023-03-27T04:58:15.750Z,4.31
2023-03-27T05:03:26.264Z,4.67
2023-03-27T05:08:46.918Z,4.38
2023-03-27T05:14:06.453Z,3.93
2023-03-27T05:19:17.106Z,4.17
2023-03-27T05:24:29.569Z,4.27
2023-03-27T05:29:46.653Z,3.99
2023-03-27T05:34:57.704Z,3.85
2023-03-27T05:40:04.350Z,3.93
2023-03-27T05:45:14.030Z,4.25
2023-03-27T05:50:34.580Z,4.03
2023-03-27T05:55:46.608Z,3.95
2023-03-27T06:00:52.154Z,3.73
2023-03-27T06:06:02.785Z,4.19
2023-03-27T06:11:21.073Z,3.71
2023-03-27T06:16:33.564Z,3.73
2023-03-27T06:22:15.949Z,3.67
2023-03-27T06:27:26.536Z,3.64
2023-03-27T06:32:33.264Z,4.13
2023-03-27T06:37:46.136Z,4.22
2023-03-27T06:42:53.682Z,4.32
2023-03-27T06:48:25.477Z,4.40
2023-03-27T06:53:38.256Z,5.19
2023-03-27T06:58:49.281Z,6.53
2023-03-27T07:03:54.831Z,5.40
2023-03-27T07:09:30.393Z,5.01
2023-03-27T07:14:42.840Z,4.60
2023-03-27T07:19:49.496Z,4.39
2023-03-27T07:24:59.603Z,4.85
2023-03-27T07:30:15.165Z,4.37
2023-03-27T07:35:24.417Z,4.92
2023-03-27T07:40:51.843Z,4.85
2023-03-27T07:46:24.458Z,5.37
2023-03-27T07:51:31.322Z,5.58
2023-03-27T07:56:44.217Z,6.81
2023-03-27T08:02:15.143Z,7.76
2023-03-27T08:07:22.901Z,7.47
2023-03-27T08:12:30.902Z,7.63
2023-03-27T08:17:39.984Z,5.81
2023-03-27T08:22:46.608Z,5.73
2023-03-27T08:28:12.855Z,5.23
2023-03-27T08:33:20.682Z,4.99
2023-03-27T08:38:28.761Z,6.97
2023-03-27T08:43:53.564Z,7.51
2023-03-27T08:49:02.143Z,5.83
2023-03-27T08:54:12.918Z,5.79
2023-03-27T08:59:23.807Z,7.57
2023-03-27T09:04:44.747Z,5.84
2023-03-27T09:10:00.134Z,5.16
2023-03-27T09:15:16.515Z,7.80
2023-03-27T09:20:37.842Z,9.69
2023-03-27T09:25:48.279Z,7.13
2023-03-27T09:31:29.331Z,6.41
2023-03-27T09:36:39.885Z,6.82
2023-03-27T09:41:51.984Z,7.38
2023-03-27T09:47:05.596Z,8.09
2023-03-27T09:52:32.879Z,6.22
2023-03-27T09:57:51.841Z,5.94
2023-03-27T10:03:13.574Z,6.72
2023-03-27T10:08:43.112Z,6.79
2023-03-27T10:13:56.459Z,5.69
2023-03-27T10:19:07.296Z,6.12
2023-03-27T10:24:29.199Z,6.84
2023-03-27T10:29:54.473Z,8.97
2023-03-27T10:35:03.459Z,8.01
2023-03-27T10:40:43.114Z,6.07
2023-03-27T10:45:59.050Z,7.18
2023-03-27T10:51:28.418Z,5.86
2023-03-27T10:56:55.649Z,5.97
2023-03-27T11:02:13.615Z,6.27
2023-03-27T11:07:35.545Z,6.78
2023-03-27T11:12:45.768Z,6.91
2023-03-27T11:17:56.918Z,7.35
2023-03-27T11:23:17.780Z,7.89
2023-03-27T11:28:54.200Z,6.38
2023-03-27T11:34:08.833Z,7.03
2023-03-27T11:39:30.344Z,7.80
2023-03-27T11:44:39.694Z,6.29
2023-03-27T11:50:11.116Z,5.70
2023-03-27T11:55:31.302Z,7.06
2023-03-27T12:00:47.654Z,7.09
2023-03-27T12:06:07.731Z,7.65
2023-03-27T12:11:20.628Z,7.52
2023-03-27T12:16:49.706Z,8.02
2023-03-27T12:22:23.864Z,7.83
2023-03-27T12:27:54.587Z,7.13
2023-03-27T12:33:38.282Z,8.59
2023-03-27T12:38:46.080Z,8.87
2023-03-27T12:43:59.618Z,9.11
2023-03-27T12:49:47.612Z,8.76
2023-03-27T12:55:35.110Z,8.25
2023-03-27T13:00:45.045Z,8.49
2023-03-27T13:06:05.092Z,7.96
2023-03-27T13:11:27.292Z,8.34
2023-03-27T13:16:51.809Z,7.77
2023-03-27T13:22:15.728Z,7.49
2023-03-27T13:27:46.580Z,7.81
2023-03-27T13:33:15.650Z,7.95
2023-03-27T13:39:02.763Z,7.84
2023-03-27T13:44:17.945Z,7.47
2023-03-27T13:49:46.096Z,7.56
2023-03-27T13:55:20.992Z,7.75
2023-03-27T14:01:17.397Z,7.38
2023-03-27T14:07:00.747Z,8.41
2023-03-27T14:12:22.201Z,7.30
2023-03-27T14:18:29.188Z,7.01
2023-03-27T14:23:52.375Z,6.90
2023-03-27T14:29:23.279Z,6.40
2023-03-27T14:34:51.089Z,6.04
2023-03-27T14:40:24.071Z,5.38
2023-03-27T14:45:37.264Z,5.26
2023-03-27T14:50:46.534Z,5.19
2023-03-27T14:55:54.404Z,5.81
2023-03-27T15:01:35.529Z,5.62
2023-03-27T15:06:41.936Z,5.84
2023-03-27T15:11:52.678Z,5.97
2023-03-27T15:17:10.189Z,5.86
2023-03-27T15:22:23.790Z,5.83
2023-03-27T15:27:32.722Z,6.29
2023-03-27T15:32:51.114Z,5.76
2023-03-27T15:37:57.429Z,5.67
2023-03-27T15:43:22.218Z,5.62
2023-03-27T15:48:35.531Z,5.28
2023-03-27T15:53:42.639Z,5.75
2023-03-27T15:58:50.939Z,5.76
2023-03-27T16:04:04.990Z,5.93
2023-03-27T16:09:25.446Z,5.79
2023-03-27T16:14:34.773Z,5.26
2023-03-27T16:19:56.151Z,5.16
2023-03-27T16:25:02.770Z,5.04
2023-03-27T16:30:25.769Z,5.24
2023-03-27T16:35:36.630Z,5.20
2023-03-27T16:40:47.087Z,5.45
2023-03-27T16:45:52.571Z,5.17
2023-03-27T16:51:00.339Z,4.97
2023-03-27T16:56:05.523Z,4.88
2023-03-27T17:01:11.401Z,4.58
2023-03-27T17:06:19.941Z,4.61
2023-03-27T17:11:26.066Z,4.41
2023-03-27T17:16:32.338Z,4.43
2023-03-27T17:21:40.102Z,4.29
2023-03-27T17:26:45.232Z,3.70
2023-03-27T17:31:52.981Z,3.33
2023-03-27T17:37:01.817Z,2.81
2023-03-27T17:42:07.177Z,2.82
2023-03-27T17:47:15.172Z,2.71
2023-03-27T17:52:23.714Z,2.73
2023-03-27T17:57:28.900Z,2.82
2023-03-27T18:02:34.123Z,2.81
2023-03-27T18:07:45.021Z,2.93
2023-03-27T18:12:50.773Z,2.75
2023-03-27T18:17:55.950Z,2.84
2023-03-27T18:23:06.116Z,2.80
2023-03-27T18:28:13.123Z,2.41
2023-03-27T18:33:18.659Z,2.47
2023-03-27T18:38:27.573Z,2.49
2023-03-27T18:43:37.815Z,2.08
2023-03-27T18:48:43.174Z,2.06
2023-03-27T18:53:53.271Z,1.82
2023-03-27T18:58:58.580Z,2.03
2023-03-27T19:04:08.037Z,1.73
2023-03-27T19:09:17.881Z,1.92
2023-03-27T19:14:25.698Z,2.05
2023-03-27T19:19:49.714Z,2.30
2023-03-27T19:25:24.575Z,2.20
2023-03-27T19:30:32.858Z,2.38
2023-03-27T19:35:39.621Z,2.22
2023-03-27T19:40:48.238Z,2.23
2023-03-27T19:46:14.352Z,1.87
2023-03-27T19:51:23.638Z,2.03
2023-03-27T19:56:35.297Z,1.95
2023-03-27T20:01:40.647Z,1.75
2023-03-27T20:06:48.896Z,1.82
2023-03-27T20:11:57.880Z,1.98
2023-03-27T20:17:09.945Z,1.88
2023-03-27T20:22:23.504Z,1.85
2023-03-27T20:27:31.405Z,1.93
2023-03-27T20:32:36.616Z,1.92
2023-03-27T20:37:43.715Z,1.89
2023-03-27T20:43:03.438Z,1.99
2023-03-27T20:48:12.455Z,1.77
2023-03-27T20:53:26.430Z,1.78
2023-03-27T20:58:37.889Z,1.77
2023-03-27T21:03:46.603Z,1.87
2023-03-27T21:08:53.202Z,1.76
2023-03-27T21:14:01.019Z,1.73
2023-03-27T21:19:06.268Z,1.85
2023-03-27T21:24:14.514Z,1.95
2023-03-27T21:29:22.292Z,1.98
2023-03-27T21:34:28.220Z,1.75
2023-03-27T21:39:33.244Z,1.88
2023-03-27T21:44:42.306Z,1.77
2023-03-27T21:49:47.418Z,1.95
2023-03-27T21:55:02.435Z,1.76
2023-03-27T22:00:14.592Z,1.77
2023-03-27T22:05:22.901Z,1.88
2023-03-27T22:10:28.224Z,1.89
2023-03-27T22:15:36.508Z,1.86
2023-03-27T22:20:42.215Z,1.89
2023-03-27T22:25:54.606Z,2.00
2023-03-27T22:31:03.449Z,2.02
2023-03-27T22:36:11.884Z,1.92
2023-03-27T22:41:17.448Z,1.94
2023-03-27T22:46:26.841Z,1.93
2023-03-27T22:51:33.584Z,2.07
2023-03-27T22:56:38.607Z,1.91
2023-03-27T23:01:46.601Z,1.96
2023-03-27T23:06:51.667Z,2.02
2023-03-27T23:11:56.999Z,1.97
2023-03-27T23:17:05.114Z,1.93
2023-03-27T23:22:12.547Z,1.97
2023-03-27T23:27:17.499Z,2.28
2023-03-27T23:32:25.147Z,2.12
2023-03-27T23:37:30.510Z,2.15
2023-03-27T23:42:35.604Z,2.08
2023-03-27T23:47:43.290Z,2.13
2023-03-27T23:52:48.370Z,2.15
2023-03-27T23:57:53.342Z,2.26
